23 de maio de 2022

Tempo Código Clima Temp. Visão Nuvens Vento METAR/SPECI
08:20
V
16 °C 10 km+ 28.000 ft 120°   120° 7 kt METAR ETHS 230620Z 12007KT 9999 FEW180 BKN280 16/07 Q1008 BLU+BLU
07:20
V
13 °C 10 km+ 21.000 ft 120°   120° 6 kt METAR ETHS 230520Z 12006KT 9999 FEW180 BKN210 13/07 Q1009 BLU+BLU
06:20
V
8 °C 8 km - 090°   090° 4 kt METAR ETHS 230420Z AUTO 09004KT 8000 // ////// 08/06 Q1010 ///
05:20
V
6 °C 8 km - 090°   090° 3 kt METAR ETHS 230320Z AUTO 09003KT 8000 // ////// 06/05 Q1010 ///
04:20
V
7 °C 8 km - 090°   090° 5 kt METAR ETHS 230220Z AUTO 09005KT 8000 // ////// 07/05 Q1011 ///
03:20
V
6 °C 9 km - 080°   080° 3 kt METAR ETHS 230120Z AUTO 08003KT 9000 // ////// 06/04 Q1011 ///
02:20
M
7 °C 7 km - Var   Var 2 kt METAR ETHS 230020Z AUTO VRB02KT 7000 // ////// 07/06 Q1012 ///
01:20
V
7 °C 8 km - 090°   090° 5 kt METAR ETHS 222320Z AUTO 09005KT 8000 // ////// 07/06 Q1012 ///
00:20
V
8 °C 8 km - 070°   070° 2 kt METAR ETHS 222220Z AUTO 07002KT 8000 // ////// 08/06 Q1013 ///

22 de maio de 2022

Tempo Código Clima Temp. Visão Nuvens Vento METAR/SPECI
23:20
V
10 °C 8 km - 070°   070° 3 kt METAR ETHS 222120Z AUTO 07003KT 8000 // ////// 10/07 Q1013 ///
22:20
V
12 °C 9 km - 060°   060° 2 kt METAR ETHS 222020Z AUTO 06002KT 9000 // ////// 12/08 Q1013 ///
21:20
V
13 °C 9 km - 080°   080° 4 kt METAR ETHS 221920Z AUTO 08004KT 9000 // ////// 13/07 Q1013 ///
20:20
V
17 °C 8 km - 090°   090° 3 kt METAR ETHS 221820Z AUTO 09003KT 8000 // ////// 17/08 Q1014 ///
19:20
V
18 °C 10 km+ - 100°   100° 2 kt METAR ETHS 221720Z AUTO 10002KT 9999 // ////// 18/05 Q1014 ///
18:20
V
18 °C 9 km - 070°   070° 3 kt METAR ETHS 221620Z AUTO 07003KT 9000 // ////// 18/04 Q1014 ///
17:20
V
19 °C 10 km+ - 070°   070° 6 kt METAR ETHS 221520Z AUTO 07006KT 9999 // ////// 19/04 Q1014 ///
16:20
M
18 °C 6 km - 340°   340° 4 kt METAR ETHS 221420Z AUTO 34004KT 6000 // ////// 18/04 Q1015 ///
15:20
V
19 °C 9 km - 330°   330° 4 kt METAR ETHS 221320Z AUTO 33004KT 9000 // ////// 19/04 Q1015 ///
14:20
M
18 °C 6 km - 020°   020° 3 kt METAR ETHS 221220Z AUTO 02003KT 6000 // ////// 18/04 Q1016 ///
13:20
V
17 °C 9 km - 170°   170° 2 kt METAR ETHS 221120Z AUTO 17002KT 9000 // ////// 17/05 Q1016 ///
12:20
V
16 °C 9 km - 310°   310° 6 kt METAR ETHS 221020Z AUTO 31006KT 9000 // ////// 16/05 Q1017 ///
11:20
V
14 °C 9 km - 300°   300° 6 kt METAR ETHS 220920Z AUTO 30006KT 9000 // ////// 14/06 Q1017 ///
10:20
V
14 °C 8 km - 290°   290° 5 kt METAR ETHS 220820Z AUTO 29005KT 8000 // ////// 14/07 Q1017 ///
09:20
V
13 °C 9 km - 290°   290° 3 kt METAR ETHS 220720Z AUTO 29003KT 9000 // ////// 13/08 Q1017 ///
08:20
V
11 °C 8 km - 290°   290° 4 kt METAR ETHS 220620Z AUTO 29004KT 8000 // ////// 11/08 Q1017 ///
07:20
V
10 °C 8 km - 330°   330° 1 kt METAR ETHS 220520Z AUTO 33001KT 8000 // ////// 10/08 Q1018 ///
06:20
V
6 °C 9 km - 190°   190° 2 kt METAR ETHS 220420Z AUTO 19002KT 9000 // ////// 06/05 Q1017 ///
05:20
I
7 °C 1,8 km - 240°   240° 2 kt METAR ETHS 220320Z AUTO 24002KT 1800 // ////// 07/06 Q1017 ///
04:20
M
7 °C 7 km - 180°   180° 2 kt METAR ETHS 220220Z AUTO 18002KT 7000 // ////// 07/06 Q1017 ///
03:20
V
8 °C 8 km - 290°   290° 2 kt METAR ETHS 220120Z AUTO 29002KT 8000 // ////// 08/06 Q1018 ///
02:20
V
10 °C 9 km - 280°   280° 4 kt METAR ETHS 220020Z AUTO 28004KT 9000 // ////// 10/07 Q1018 ///
01:20
V
10 °C 9 km - 300°   300° 1 kt METAR ETHS 212320Z AUTO 30001KT 9000 // ////// 10/07 Q1018 ///
00:20
V
12 °C 9 km - 290°   290° 3 kt METAR ETHS 212220Z AUTO 29003KT 9000 // ////// 12/06 Q1018 ///

21 de maio de 2022

Tempo Código Clima Temp. Visão Nuvens Vento METAR/SPECI
23:20
V
13 °C 9 km - 310°   310° 7 kt METAR ETHS 212120Z AUTO 31007KT 9000 // ////// 13/06 Q1018 ///
22:20
V
14 °C 9 km - 310°   310° 7 kt METAR ETHS 212020Z AUTO 31007KT 9000 // ////// 14/05 Q1018 ///
21:20
V
15 °C 9 km - 320°   320° 9 kt METAR ETHS 211920Z AUTO 32009KT 9000 // ////// 15/05 Q1018 ///
20:20
V
16 °C 9 km - 310°   310° 11 kt METAR ETHS 211820Z AUTO 31011KT 9000 // ////// 16/05 Q1018 ///
19:20
V
16 °C 8 km - 300°   300° 12 kt METAR ETHS 211720Z AUTO 30012KT 8000 // ////// 16/07 Q1018 ///
18:20
M
16 °C 7 km - 310°   310° 15 kt METAR ETHS 211620Z AUTO 31015KT 7000 // ////// 16/07 Q1017 ///
17:20
V
17 °C 9 km - 310°   310° 17 kt METAR ETHS 211520Z AUTO 31017KT 9000 // ////// 17/06 Q1017 ///
16:20
V
18 °C 8 km - 290°   290° 18 kt METAR ETHS 211420Z AUTO 29018KT 8000 // ////// 18/07 Q1017 ///
15:20
M
17 °C 7 km - 310°   310° 15 kt METAR ETHS 211320Z AUTO 31015KT 7000 // ////// 17/08 Q1017 ///
14:20
V
17 °C 8 km - 300°   300° 15 kt METAR ETHS 211220Z AUTO 30015KT 8000 // ////// 17/09 Q1017 ///
13:20
V
17 °C 8 km - 310°   310° 19 kt METAR ETHS 211120Z AUTO 31019KT 8000 // ////// 17/07 Q1016 ///
12:20
V
16 °C 8 km - 280°   280° 19 30 kt METAR ETHS 211020Z AUTO 28019G30KT 8000 // ////// 16/07 Q1016 ///
11:20
V
15 °C 9 km - 280°   280° 15 25 kt METAR ETHS 210920Z AUTO 28015G25KT 9000 // ////// 15/09 Q1016 ///
10:20
V
14 °C 8 km - 250°   250° 16 kt METAR ETHS 210820Z AUTO 25016KT 8000 // ////// 14/10 Q1016 ///
09:20
M
13 °C 7 km - 260°   260° 13 kt METAR ETHS 210720Z AUTO 26013KT 7000 // ////// 13/10 Q1016 ///
Dados mais antigos

Baixe nosso aplicativo

Fácil acesso a todas as condições meteorológicas da aviação no seu celular e no seu tablet.
Com muitos recursos não disponíveis no site, como suporte offline e uma lista pessoal de aeroportos.

Nós e terceiros acompanhamos seu comportamento na internet em nosso site com cookies. Se você continuar, nós assumimos que você concorda com nossa política de cookies. Saiba mais